Time;durP1;ratioP1;P1;durP2;ratioP2;P2;SDS_P1;SDS_P2;PMS_P1;PMS_P2;Temp;Humidity;BMP_temperature;BMP_pressure;BME280_temperature;BME280_humidity;BME280_pressure;Samples;Min_cycle;Max_cycle;Signal;HPM_P1;HPM_P2
2021/12/12 00:01:44;;;;;;;31.17;15.18;;;1.50;91.20;;;;;;4963668;28;20578;-69
2021/12/12 00:04:14;;;;;;;32.45;15.32;;;1.50;91.50;;;;;;4969986;28;20038;-68
2021/12/12 00:06:54;;;;;;;33.05;14.88;;;1.50;91.40;;;;;;4965198;28;20046;-68
2021/12/12 00:09:27;;;;;;;39.10;15.88;;;1.50;91.30;;;;;;4962478;28;20819;-67
2021/12/12 00:11:54;;;;;;;35.13;16.17;;;1.50;91.20;;;;;;4965458;28;20031;-68
2021/12/12 00:14:24;;;;;;;33.22;14.57;;;1.50;91.30;;;;;;4962123;28;20494;-67
2021/12/12 00:16:52;;;;;;;33.15;14.77;;;1.40;91.60;;;;;;4969579;28;20147;-68
2021/12/12 00:19:18;;;;;;;26.77;14.35;;;1.50;91.90;;;;;;4975425;28;20359;-68
2021/12/12 00:21:48;;;;;;;36.22;15.60;;;1.50;91.80;;;;;;4963819;28;20027;-68
2021/12/12 00:24:16;;;;;;;32.28;15.25;;;1.50;91.70;;;;;;4965452;28;20031;-69
2021/12/12 00:26:43;;;;;;;32.45;14.63;;;1.60;91.60;;;;;;4951762;28;20041;-69
2021/12/12 00:29:11;;;;;;;31.90;15.45;;;1.50;91.40;;;;;;4966912;28;20053;-68
2021/12/12 00:31:37;;;;;;;31.23;14.77;;;1.60;91.60;;;;;;4966354;28;20034;-67
2021/12/12 00:34:05;;;;;;;32.58;15.15;;;1.70;91.30;;;;;;4965637;28;20039;-68
2021/12/12 00:36:33;;;;;;;35.15;15.90;;;1.70;91.30;;;;;;4963906;28;20123;-68
2021/12/12 00:39:05;;;;;;;32.13;14.27;;;1.70;91.20;;;;;;4965156;28;20031;-68
2021/12/12 00:41:40;;;;;;;25.05;13.63;;;1.70;91.20;;;;;;4963340;28;20109;-68
2021/12/12 00:44:06;;;;;;;31.27;14.50;;;1.70;91.10;;;;;;4964141;28;20108;-68
2021/12/12 00:46:32;;;;;;;34.10;15.45;;;1.70;91.00;;;;;;4963947;28;20278;-68
2021/12/12 00:48:58;;;;;;;37.13;16.27;;;1.70;91.00;;;;;;4969643;28;20030;-68
2021/12/12 00:51:31;;;;;;;28.88;15.02;;;1.80;91.00;;;;;;4965452;28;20041;-68
2021/12/12 00:53:57;;;;;;;31.42;15.18;;;1.80;90.90;;;;;;4962964;28;20037;-68
2021/12/12 00:56:23;;;;;;;27.58;14.88;;;1.90;91.00;;;;;;4963014;28;20038;-68
2021/12/12 00:58:48;;;;;;;30.38;14.25;;;1.90;90.70;;;;;;4965137;28;20046;-68
2021/12/12 01:01:20;;;;;;;31.67;15.40;;;2.00;90.50;;;;;;4966372;28;20070;-67
2021/12/12 01:03:53;;;;;;;29.17;15.00;;;2.00;90.40;;;;;;4971024;28;20042;-68
2021/12/12 01:06:23;;;;;;;32.85;14.73;;;2.10;90.50;;;;;;4959606;28;20815;-68
2021/12/12 01:08:51;;;;;;;30.92;14.18;;;2.10;90.40;;;;;;4962589;28;20421;-68
2021/12/12 01:11:26;;;;;;;31.30;14.52;;;2.10;90.30;;;;;;4961377;28;20062;-68
2021/12/12 01:13:53;;;;;;;32.15;14.80;;;2.20;90.10;;;;;;4966724;28;20101;-68
2021/12/12 01:16:25;;;;;;;29.02;14.88;;;2.20;90.00;;;;;;4967509;28;20037;-69
2021/12/12 01:19:04;;;;;;;28.85;14.77;;;2.20;90.00;;;;;;4962212;28;20066;-69
2021/12/12 01:21:35;;;;;;;31.38;14.63;;;2.30;90.00;;;;;;4963743;28;20070;-69
2021/12/12 01:24:13;;;;;;;27.17;13.48;;;2.30;89.80;;;;;;4961701;28;20129;-68
2021/12/12 01:26:40;;;;;;;32.55;15.35;;;2.20;89.60;;;;;;4968673;28;20030;-68
2021/12/12 01:29:06;;;;;;;30.02;14.10;;;2.30;90.00;;;;;;4980247;28;20454;-69
2021/12/12 01:31:39;;;;;;;30.33;14.63;;;2.30;89.70;;;;;;4966027;28;20118;-68
2021/12/12 01:34:11;;;;;;;30.70;14.57;;;2.30;89.80;;;;;;4962538;28;20030;-68
2021/12/12 01:37:06;;;;;;;26.08;13.85;;;2.30;89.60;;;;;;4963958;28;20536;-67
2021/12/12 01:39:41;;;;;;;32.50;14.18;;;2.30;89.60;;;;;;4965913;28;20108;-68
2021/12/12 01:42:10;;;;;;;28.45;14.45;;;2.40;89.40;;;;;;4964381;28;20019;-67
2021/12/12 01:44:51;;;;;;;33.08;14.25;;;2.30;89.60;;;;;;4962205;28;20046;-68
2021/12/12 01:47:28;;;;;;;26.65;13.27;;;2.30;89.40;;;;;;4959306;28;20069;-66
2021/12/12 01:50:02;;;;;;;28.70;14.23;;;2.30;89.10;;;;;;4960812;28;20049;-68
2021/12/12 01:52:30;;;;;;;29.25;14.07;;;2.30;88.10;;;;;;4963707;28;20077;-68
2021/12/12 01:55:03;;;;;;;27.95;14.52;;;2.20;88.90;;;;;;4968509;28;20069;-68
2021/12/12 01:57:32;;;;;;;25.15;13.32;;;2.10;89.80;;;;;;4964524;28;20042;-68
2021/12/12 02:00:01;;;;;;;28.33;13.73;;;2.20;89.60;;;;;;4970012;28;20035;-68
2021/12/12 02:02:31;;;;;;;26.33;13.82;;;2.20;89.50;;;;;;4963089;28;20472;-68
2021/12/12 02:05:04;;;;;;;30.45;13.20;;;2.20;89.70;;;;;;4961516;28;20037;-68
2021/12/12 02:07:36;;;;;;;30.25;14.02;;;2.10;89.10;;;;;;4956073;28;20126;-68
2021/12/12 02:10:09;;;;;;;24.00;13.23;;;2.00;89.40;;;;;;4961940;28;20035;-68
2021/12/12 02:12:36;;;;;;;27.15;12.88;;;2.00;89.90;;;;;;4961829;28;20034;-68
2021/12/12 02:15:02;;;;;;;28.65;14.95;;;1.90;89.90;;;;;;4963289;28;20058;-68
2021/12/12 02:17:36;;;;;;;28.27;14.02;;;1.90;89.70;;;;;;4964228;28;20062;-68
2021/12/12 02:20:16;;;;;;;25.60;13.25;;;1.90;90.00;;;;;;4961930;28;20054;-68
2021/12/12 02:36:20;;;;;;;30.45;12.52;;;1.60;90.30;;;;;;4963037;28;20049;-68
2021/12/12 02:38:49;;;;;;;28.20;13.63;;;1.50;90.40;;;;;;4964440;28;20034;-68
2021/12/12 02:41:18;;;;;;;26.30;12.30;;;1.50;90.40;;;;;;4964555;28;20739;-68
2021/12/12 02:43:53;;;;;;;31.38;13.93;;;1.50;90.30;;;;;;4966391;28;20038;-68
2021/12/12 02:46:33;;;;;;;27.58;13.23;;;1.40;90.40;;;;;;4958194;28;20039;-69
2021/12/12 02:49:07;;;;;;;25.15;12.10;;;1.40;90.40;;;;;;4966103;28;20046;-68
2021/12/12 02:51:37;;;;;;;25.58;14.00;;;1.30;90.50;;;;;;4962107;28;20411;-68
2021/12/12 02:54:04;;;;;;;26.67;12.43;;;1.30;90.70;;;;;;4958258;28;20042;-69
2021/12/12 02:56:35;;;;;;;26.38;13.18;;;1.30;90.70;;;;;;4961173;28;20147;-68
2021/12/12 02:59:06;;;;;;;25.33;13.10;;;1.30;90.80;;;;;;4961659;28;20466;-68
2021/12/12 03:01:43;;;;;;;28.00;12.88;;;1.30;90.90;;;;;;4964866;28;20038;-68
2021/12/12 03:04:09;;;;;;;24.58;13.07;;;1.20;91.00;;;;;;4964925;28;20034;-69
2021/12/12 03:06:38;;;;;;;26.00;12.70;;;1.20;91.00;;;;;;4970309;28;20035;-68
2021/12/12 03:09:21;;;;;;;25.75;12.77;;;1.20;91.10;;;;;;4965033;28;20150;-68
2021/12/12 03:11:50;;;;;;;24.63;13.20;;;1.30;91.10;;;;;;4958227;28;20053;-68
2021/12/12 03:14:16;;;;;;;22.70;12.52;;;1.30;91.10;;;;;;4966721;28;20130;-68
2021/12/12 03:16:43;;;;;;;24.48;13.18;;;1.30;91.10;;;;;;4966169;28;20369;-68
2021/12/12 03:19:09;;;;;;;24.13;13.00;;;1.40;91.40;;;;;;4970989;28;20061;-68
2021/12/12 03:21:42;;;;;;;23.85;12.55;;;1.40;91.10;;;;;;4966947;28;20035;-68
2021/12/12 03:24:19;;;;;;;25.02;11.88;;;1.50;91.00;;;;;;4966472;28;20133;-68
2021/12/12 03:26:48;;;;;;;25.40;13.30;;;1.50;90.90;;;;;;4967955;28;20031;-69
2021/12/12 03:29:14;;;;;;;25.90;12.55;;;1.60;91.00;;;;;;4965374;28;20077;-68
2021/12/12 03:31:51;;;;;;;25.23;12.07;;;1.70;90.90;;;;;;4967798;28;20082;-68
2021/12/12 03:34:21;;;;;;;23.20;12.45;;;1.70;90.80;;;;;;4965131;28;20047;-68
2021/12/12 03:36:48;;;;;;;22.25;11.80;;;1.70;90.80;;;;;;4968158;28;20039;-68
2021/12/12 03:39:18;;;;;;;25.90;13.10;;;1.70;90.70;;;;;;4967812;28;20075;-70
2021/12/12 03:41:44;;;;;;;23.73;11.57;;;1.70;90.60;;;;;;4964104;28;20477;-68
2021/12/12 03:44:18;;;;;;;23.15;12.30;;;1.70;90.70;;;;;;4964621;28;20030;-68
2021/12/12 03:46:46;;;;;;;27.08;13.48;;;1.70;90.70;;;;;;4968103;28;20451;-67
2021/12/12 03:49:12;;;;;;;21.17;11.85;;;1.70;90.80;;;;;;4966763;28;20749;-68
2021/12/12 03:51:40;;;;;;;26.90;12.68;;;1.70;90.80;;;;;;4968501;28;20061;-68
2021/12/12 03:54:07;;;;;;;24.42;12.60;;;1.70;90.80;;;;;;4965654;28;20034;-68
2021/12/12 03:56:33;;;;;;;29.83;14.98;;;1.80;90.70;;;;;;4963634;28;20757;-69
2021/12/12 03:58:59;;;;;;;32.60;17.08;;;1.80;90.60;;;;;;4965979;28;20030;-69
2021/12/12 04:01:33;;;;;;;40.65;18.38;;;1.80;90.70;;;;;;4967947;28;20717;-68
2021/12/12 04:04:08;;;;;;;29.42;16.45;;;1.80;90.60;;;;;;4971329;28;20165;-68
2021/12/12 04:06:34;;;;;;;54.33;25.48;;;1.70;90.60;;;;;;4967817;28;20121;-68
2021/12/12 04:09:01;;;;;;;65.72;27.77;;;1.80;90.60;;;;;;4964650;28;20030;-68
2021/12/12 04:11:53;;;;;;;62.72;30.83;;;1.80;90.50;;;;;;4964433;28;20430;-68
2021/12/12 04:14:21;;;;;;;50.92;24.83;;;1.70;90.60;;;;;;4963508;28;20101;-67
2021/12/12 04:16:50;;;;;;;43.65;21.15;;;1.70;90.70;;;;;;4970646;28;20039;-68
2021/12/12 04:19:16;;;;;;;34.00;17.02;;;1.70;90.80;;;;;;4975292;28;20949;-68
2021/12/12 04:21:43;;;;;;;36.83;16.48;;;1.70;91.00;;;;;;4965098;28;20133;-68
2021/12/12 04:24:10;;;;;;;26.80;14.10;;;1.70;91.00;;;;;;4964855;28;20033;-68
2021/12/12 04:26:39;;;;;;;31.95;16.27;;;1.80;91.00;;;;;;4963629;28;20066;-68
2021/12/12 04:29:15;;;;;;;33.17;15.70;;;1.90;90.80;;;;;;4966081;28;20633;-68
2021/12/12 04:31:45;;;;;;;31.65;17.65;;;2.00;90.60;;;;;;4961259;28;20533;-68
2021/12/12 04:34:12;;;;;;;29.08;15.60;;;2.00;90.60;;;;;;4960961;28;20042;-68
2021/12/12 04:36:42;;;;;;;31.23;15.77;;;2.00;90.60;;;;;;4965765;28;20031;-68
2021/12/12 04:39:15;;;;;;;27.90;14.98;;;2.10;90.50;;;;;;4962405;28;20170;-69
2021/12/12 04:41:43;;;;;;;27.38;13.68;;;2.10;90.50;;;;;;4960759;28;20151;-67
2021/12/12 04:44:09;;;;;;;26.90;14.13;;;2.00;90.30;;;;;;4968273;28;20113;-68
2021/12/12 04:52:26;;;;;;;24.92;12.15;;;1.90;90.60;;;;;;4963294;28;20038;-69
2021/12/12 04:55:09;;;;;;;23.73;12.57;;;1.90;90.60;;;;;;4964636;28;20077;-68
2021/12/12 04:57:58;;;;;;;21.13;10.50;;;1.90;90.70;;;;;;4966471;28;20050;-68
2021/12/12 05:00:41;;;;;;;22.27;12.50;;;1.90;90.70;;;;;;4961202;28;20053;-67
2021/12/12 05:03:25;;;;;;;21.65;12.02;;;1.90;90.70;;;;;;4963639;28;20116;-68
2021/12/12 05:05:53;;;;;;;26.77;12.65;;;1.90;90.40;;;;;;4962447;28;20157;-67
2021/12/12 05:08:42;;;;;;;23.90;12.48;;;1.80;90.30;;;;;;4963023;28;20066;-68
2021/12/12 05:11:13;;;;;;;19.85;11.55;;;1.80;90.30;;;;;;4961159;28;20042;-68
2021/12/12 05:13:48;;;;;;;24.25;12.60;;;1.80;90.30;;;;;;4963646;28;20043;-69
2021/12/12 05:16:18;;;;;;;22.30;12.57;;;1.80;90.40;;;;;;4966926;28;20027;-68
2021/12/12 05:18:50;;;;;;;24.10;12.43;;;1.80;90.30;;;;;;4961765;28;20041;-67
2021/12/12 05:21:23;;;;;;;25.95;12.02;;;1.80;90.40;;;;;;4963166;28;20047;-68
2021/12/12 05:23:52;;;;;;;22.25;11.98;;;1.80;90.30;;;;;;4965956;28;20039;-68
2021/12/12 05:26:25;;;;;;;22.80;11.25;;;1.80;90.30;;;;;;4965850;28;20387;-68
2021/12/12 05:29:05;;;;;;;22.20;11.82;;;1.80;90.40;;;;;;4969183;28;20168;-67
2021/12/12 05:31:33;;;;;;;24.45;12.93;;;1.80;90.40;;;;;;4962646;28;20190;-68
2021/12/12 05:34:00;;;;;;;26.48;12.82;;;1.80;90.40;;;;;;4964353;28;20026;-68
2021/12/12 05:36:27;;;;;;;22.42;11.63;;;1.90;90.40;;;;;;4963800;28;20035;-67
2021/12/12 05:38:59;;;;;;;23.80;12.90;;;1.80;90.30;;;;;;4968003;28;20049;-68
2021/12/12 05:41:25;;;;;;;28.75;13.95;;;1.80;90.50;;;;;;4967778;28;20053;-67
2021/12/12 05:43:55;;;;;;;23.25;12.45;;;1.80;90.20;;;;;;4964974;28;20655;-68
2021/12/12 05:46:23;;;;;;;22.05;11.52;;;1.70;90.30;;;;;;4964584;28;20042;-67
2021/12/12 05:48:50;;;;;;;25.27;12.45;;;1.70;90.30;;;;;;4966181;28;20039;-68
2021/12/12 05:51:20;;;;;;;27.48;13.52;;;1.60;90.40;;;;;;4962517;28;20047;-67
2021/12/12 05:53:50;;;;;;;25.58;12.18;;;1.60;90.40;;;;;;4968985;28;20105;-68
2021/12/12 05:56:16;;;;;;;24.75;12.65;;;1.60;90.40;;;;;;4963551;28;20141;-68
2021/12/12 05:58:42;;;;;;;21.90;11.35;;;1.60;91.00;;;;;;4964465;28;20038;-69
2021/12/12 06:01:11;;;;;;;21.20;11.48;;;1.50;90.90;;;;;;4964294;28;20027;-68
2021/12/12 06:03:41;;;;;;;28.60;13.63;;;1.60;90.90;;;;;;4961940;28;20135;-68
2021/12/12 06:06:19;;;;;;;25.55;13.20;;;1.60;90.80;;;;;;4964232;28;20042;-68
2021/12/12 06:08:45;;;;;;;25.20;11.75;;;1.60;90.80;;;;;;4962628;28;20607;-68
2021/12/12 06:11:14;;;;;;;26.23;12.88;;;1.60;91.00;;;;;;4958812;28;20682;-68
2021/12/12 06:13:41;;;;;;;25.02;12.60;;;1.60;91.00;;;;;;4960812;28;20039;-68
2021/12/12 06:16:08;;;;;;;29.17;12.80;;;1.60;91.00;;;;;;4961920;28;20472;-68
2021/12/12 06:18:36;;;;;;;27.77;13.02;;;1.60;91.00;;;;;;4961675;28;20520;-68
2021/12/12 06:21:03;;;;;;;24.83;11.23;;;1.70;90.90;;;;;;4961892;28;20051;-68
2021/12/12 06:23:29;;;;;;;24.00;12.10;;;1.70;90.90;;;;;;4961703;28;20042;-68
2021/12/12 06:25:55;;;;;;;28.92;13.13;;;1.80;90.80;;;;;;4960433;28;20027;-68
2021/12/12 06:28:21;;;;;;;24.13;12.10;;;1.80;90.90;;;;;;4962198;28;20038;-68
2021/12/12 06:30:47;;;;;;;23.90;13.38;;;1.80;90.70;;;;;;4962806;28;20059;-68
2021/12/12 06:33:14;;;;;;;27.73;13.07;;;1.80;90.70;;;;;;4963765;28;20121;-68
2021/12/12 06:35:40;;;;;;;26.05;13.20;;;1.90;90.60;;;;;;4961444;28;20122;-67
2021/12/12 06:38:09;;;;;;;26.10;12.02;;;1.90;90.70;;;;;;4962391;28;20070;-68
2021/12/12 06:40:36;;;;;;;21.30;11.52;;;1.90;90.70;;;;;;4963039;28;20089;-68
2021/12/12 06:43:08;;;;;;;22.67;12.25;;;2.00;90.80;;;;;;4960101;28;20026;-68
2021/12/12 06:45:35;;;;;;;24.42;12.32;;;2.00;90.70;;;;;;4964439;28;20562;-68
2021/12/12 06:48:07;;;;;;;21.05;10.82;;;2.10;90.60;;;;;;4957582;28;20030;-68
2021/12/12 06:50:38;;;;;;;22.50;12.32;;;2.10;90.50;;;;;;4960123;28;20042;-68
2021/12/12 06:53:05;;;;;;;23.30;12.10;;;2.10;90.60;;;;;;4961974;28;20030;-68
2021/12/12 06:55:32;;;;;;;19.90;11.45;;;2.10;90.90;;;;;;4960872;28;20148;-68
2021/12/12 06:57:58;;;;;;;26.35;11.60;;;2.20;90.80;;;;;;4961331;28;20035;-68
2021/12/12 07:00:27;;;;;;;24.63;12.07;;;2.20;90.60;;;;;;4959435;28;20031;-68
2021/12/12 07:02:53;;;;;;;23.77;11.50;;;2.20;90.50;;;;;;4960995;28;20027;-68
2021/12/12 07:05:22;;;;;;;25.40;12.02;;;2.20;90.40;;;;;;4960946;28;20050;-69
2021/12/12 07:07:49;;;;;;;21.50;11.20;;;2.20;90.20;;;;;;4964738;28;20058;-68
2021/12/12 07:10:18;;;;;;;22.48;11.23;;;2.20;90.30;;;;;;4960294;28;20857;-68
2021/12/12 07:12:44;;;;;;;23.73;12.15;;;2.20;90.20;;;;;;4961702;28;20108;-68
2021/12/12 07:15:13;;;;;;;22.60;11.75;;;2.20;90.50;;;;;;4960915;28;20027;-68
2021/12/12 07:17:39;;;;;;;24.75;11.73;;;2.30;90.30;;;;;;4960985;28;20047;-68
2021/12/12 07:20:08;;;;;;;31.30;13.35;;;2.30;90.30;;;;;;4964407;28;20026;-69
2021/12/12 07:22:34;;;;;;;23.33;11.32;;;2.30;90.20;;;;;;4962142;28;20035;-67
2021/12/12 07:25:01;;;;;;;22.10;11.10;;;2.30;90.20;;;;;;4960435;28;20812;-69
2021/12/12 07:27:27;;;;;;;24.52;12.65;;;2.30;90.30;;;;;;4961883;28;20089;-69
2021/12/12 07:29:56;;;;;;;25.25;12.38;;;2.30;90.50;;;;;;4960448;28;20114;-68
2021/12/12 07:32:22;;;;;;;23.30;11.45;;;2.40;90.60;;;;;;4960344;28;20783;-68
2021/12/12 07:34:48;;;;;;;26.02;12.48;;;2.40;90.60;;;;;;4960174;28;20034;-69
2021/12/12 07:37:14;;;;;;;22.77;11.50;;;2.40;90.60;;;;;;4960754;28;20031;-69
2021/12/12 07:39:42;;;;;;;26.38;11.98;;;2.50;90.70;;;;;;4962456;28;20065;-68
2021/12/12 07:42:09;;;;;;;28.80;12.65;;;2.50;90.60;;;;;;4960334;28;20041;-68
2021/12/12 07:44:38;;;;;;;25.48;11.52;;;2.60;90.50;;;;;;4966121;28;20050;-69
2021/12/12 07:47:05;;;;;;;24.52;11.52;;;2.60;90.50;;;;;;4961782;28;20035;-68
2021/12/12 07:49:35;;;;;;;25.30;11.52;;;2.60;90.40;;;;;;4962625;28;20094;-69
2021/12/12 07:52:04;;;;;;;20.23;10.73;;;2.60;90.30;;;;;;4967427;28;20100;-68
2021/12/12 07:54:32;;;;;;;25.25;11.45;;;2.60;90.30;;;;;;4963120;28;20035;-67
2021/12/12 07:56:57;;;;;;;24.92;11.63;;;2.70;90.30;;;;;;4964096;28;20037;-68
2021/12/12 07:59:23;;;;;;;25.38;12.60;;;2.70;90.40;;;;;;4948114;28;20034;-69
2021/12/12 08:01:51;;;;;;;24.65;11.85;;;2.70;90.40;;;;;;4961272;28;20097;-68
2021/12/12 08:04:21;;;;;;;27.88;13.23;;;2.80;90.30;;;;;;4963915;28;20035;-68
2021/12/12 08:06:48;;;;;;;28.38;12.13;;;2.80;90.00;;;;;;4961315;28;20039;-68
2021/12/12 08:09:14;;;;;;;28.92;13.05;;;2.80;90.20;;;;;;4963315;28;20526;-69
2021/12/12 08:11:42;;;;;;;24.65;11.60;;;2.90;90.30;;;;;;4966215;28;20046;-69
2021/12/12 08:14:18;;;;;;;23.83;11.63;;;2.90;90.40;;;;;;4966880;28;20030;-68
2021/12/12 08:16:45;;;;;;;23.17;11.57;;;2.90;90.40;;;;;;4963383;28;20130;-68
2021/12/12 08:19:11;;;;;;;25.42;11.52;;;3.00;90.30;;;;;;4968111;28;20565;-68
2021/12/12 08:21:38;;;;;;;25.05;11.70;;;3.00;90.30;;;;;;4961510;28;20035;-68
2021/12/12 08:24:10;;;;;;;25.38;11.57;;;3.10;90.20;;;;;;4964192;28;20038;-68
2021/12/12 08:26:39;;;;;;;27.20;12.98;;;3.20;90.00;;;;;;4963117;28;20031;-70
2021/12/12 08:29:07;;;;;;;32.15;13.48;;;3.20;90.00;;;;;;4963122;28;20026;-66
2021/12/12 08:31:34;;;;;;;25.88;12.75;;;3.30;89.70;;;;;;4960875;28;20035;-69
2021/12/12 08:34:01;;;;;;;23.95;12.38;;;3.30;89.10;;;;;;4956816;28;20078;-69
2021/12/12 08:36:27;;;;;;;26.05;12.48;;;3.30;89.50;;;;;;4963432;28;20770;-63
2021/12/12 08:38:52;;;;;;;25.10;12.38;;;3.40;89.50;;;;;;4962554;28;20039;-67
2021/12/12 08:41:20;;;;;;;28.70;12.35;;;3.40;89.60;;;;;;4961862;28;20121;-68
2021/12/12 08:43:46;;;;;;;27.85;12.73;;;3.40;89.50;;;;;;4961890;28;20027;-68
2021/12/12 08:46:14;;;;;;;25.48;11.95;;;3.50;89.50;;;;;;4963776;28;20030;-68
2021/12/12 08:48:49;;;;;;;25.95;12.10;;;3.70;88.80;;;;;;4962642;28;20157;-68
2021/12/12 08:51:29;;;;;;;30.15;11.90;;;3.70;88.70;;;;;;4962328;28;20038;-69
2021/12/12 08:54:02;;;;;;;26.88;12.35;;;3.70;88.20;;;;;;4960947;28;20146;-73
2021/12/12 08:56:41;;;;;;;23.63;11.18;;;3.70;88.20;;;;;;4976406;28;20451;-68
2021/12/12 08:59:12;;;;;;;24.00;11.43;;;3.70;88.40;;;;;;4961651;28;20035;-69
2021/12/12 09:01:39;;;;;;;28.35;11.73;;;3.80;88.20;;;;;;4962749;28;20046;-69
2021/12/12 09:04:07;;;;;;;26.60;13.25;;;3.80;88.20;;;;;;4964002;28;20027;-69
2021/12/12 09:06:38;;;;;;;30.45;13.05;;;3.60;88.60;;;;;;4962832;28;20050;-69
2021/12/12 09:09:08;;;;;;;26.23;11.98;;;3.60;88.80;;;;;;4958805;28;20026;-68
2021/12/12 09:11:42;;;;;;;24.67;13.00;;;3.60;88.80;;;;;;4960764;28;20679;-68
2021/12/12 09:14:20;;;;;;;30.90;11.85;;;3.60;89.40;;;;;;4960858;28;20899;-68
2021/12/12 09:17:26;;;;;;;26.00;12.48;;;3.60;89.10;;;;;;4973283;28;20252;-68
2021/12/12 09:19:58;;;;;;;29.40;12.75;;;3.70;89.30;;;;;;4934037;28;20102;-69
2021/12/12 09:22:33;;;;;;;25.25;11.82;;;3.60;89.80;;;;;;4953324;28;20054;-68
2021/12/12 09:25:19;;;;;;;22.98;10.85;;;3.60;90.00;;;;;;4974786;28;20517;-68
2021/12/12 09:27:51;;;;;;;27.83;12.97;;;3.70;89.50;;;;;;4966769;28;20379;-68
2021/12/12 09:30:20;;;;;;;32.40;14.10;;;3.80;89.30;;;;;;4962835;28;20050;-68
2021/12/12 09:33:20;;;;;;;28.67;13.07;;;3.90;89.30;;;;;;4966571;28;20035;-69
2021/12/12 09:36:10;;;;;;;44.50;15.43;;;3.90;88.80;;;;;;4959941;28;20121;-69
2021/12/12 09:38:43;;;;;;;32.42;13.73;;;4.00;88.70;;;;;;4959651;28;20522;-68
2021/12/12 09:41:23;;;;;;;31.25;13.25;;;4.00;88.90;;;;;;4960745;28;20501;-69
2021/12/12 09:44:12;;;;;;;34.92;14.45;;;4.10;89.00;;;;;;4960747;28;20502;-69
2021/12/12 09:53:32;;;;;;;26.33;11.88;;;4.30;87.70;;;;;;4960970;28;20049;-68
2021/12/12 09:56:07;;;;;;;23.17;12.35;;;4.40;88.10;;;;;;4956580;28;20034;-69
2021/12/12 09:58:41;;;;;;;31.95;14.05;;;4.40;88.80;;;;;;4966599;28;20426;-69
2021/12/12 10:01:25;;;;;;;31.15;14.32;;;4.40;87.60;;;;;;4957831;28;20042;-69
2021/12/12 10:04:21;;;;;;;25.88;13.48;;;4.50;87.70;;;;;;4954251;28;20031;-69
2021/12/12 10:07:05;;;;;;;29.02;13.90;;;4.40;87.80;;;;;;4956977;28;20034;-68
2021/12/12 10:09:37;;;;;;;26.60;12.25;;;4.40;88.40;;;;;;4954222;28;20134;-65
2021/12/12 10:12:13;;;;;;;37.83;14.80;;;4.40;88.60;;;;;;4971989;28;20479;-64
2021/12/12 10:15:04;;;;;;;28.60;13.75;;;4.40;88.40;;;;;;4954817;28;20039;-64
2021/12/12 10:17:44;;;;;;;30.90;13.23;;;4.40;88.50;;;;;;4957053;28;20125;-65
2021/12/12 10:20:18;;;;;;;26.90;12.65;;;4.40;88.20;;;;;;4956292;28;20848;-67
2021/12/12 10:23:48;;;;;;;27.58;13.18;;;4.40;88.60;;;;;;4959044;28;20037;-69
2021/12/12 10:26:21;;;;;;;33.17;13.98;;;4.50;88.30;;;;;;4888650;29;20040;-67
2021/12/12 10:29:02;;;;;;;32.92;13.80;;;4.50;88.60;;;;;;4950543;28;20046;-68
2021/12/12 10:31:34;;;;;;;32.03;14.88;;;4.50;88.60;;;;;;4960187;28;20909;-67
2021/12/12 10:34:06;;;;;;;28.15;13.52;;;4.50;88.50;;;;;;4959165;28;20035;-68
2021/12/12 10:36:49;;;;;;;36.72;15.10;;;4.50;89.20;;;;;;4960093;28;20030;-68
2021/12/12 10:39:47;;;;;;;34.22;14.93;;;4.60;88.70;;;;;;4957927;28;20154;-68
2021/12/12 10:42:20;;;;;;;37.47;14.75;;;4.60;88.50;;;;;;4949671;28;20047;-68
2021/12/12 10:45:03;;;;;;;33.42;14.63;;;4.70;88.60;;;;;;4961595;28;20041;-68
2021/12/12 10:47:37;;;;;;;29.73;12.82;;;4.70;88.60;;;;;;4963258;28;20062;-68
2021/12/12 10:50:23;;;;;;;30.50;14.07;;;4.80;88.80;;;;;;4960229;28;20437;-68
2021/12/12 10:52:53;;;;;;;28.73;13.38;;;4.90;88.20;;;;;;4958599;28;20125;-68
2021/12/12 10:55:42;;;;;;;29.25;13.93;;;5.00;87.80;;;;;;4958253;28;20753;-72
2021/12/12 10:58:43;;;;;;;29.33;12.98;;;5.00;87.90;;;;;;4941600;28;20031;-68
2021/12/12 11:01:23;;;;;;;28.13;13.98;;;5.00;87.70;;;;;;4960626;28;20110;-68
2021/12/12 11:04:26;;;;;;;31.45;14.02;;;5.10;87.00;;;;;;4958082;28;20045;-67
2021/12/12 11:06:58;;;;;;;24.67;12.50;;;5.20;87.70;;;;;;4958360;28;20091;-68
2021/12/12 11:09:41;;;;;;;27.33;13.98;;;5.20;86.50;;;;;;4960394;28;20042;-67
2021/12/12 11:12:34;;;;;;;31.08;13.52;;;5.20;86.40;;;;;;4957946;28;20057;-69
2021/12/12 11:15:03;;;;;;;29.05;13.80;;;5.30;86.60;;;;;;4960191;28;20443;-66
2021/12/12 11:17:39;;;;;;;30.25;13.80;;;5.10;86.80;;;;;;4960609;28;20049;-66
2021/12/12 11:20:13;;;;;;;32.05;14.40;;;5.00;87.50;;;;;;4958173;28;20027;-67
2021/12/12 11:22:53;;;;;;;30.85;14.10;;;5.00;87.70;;;;;;4961663;28;20519;-67
2021/12/12 11:25:29;;;;;;;32.08;14.73;;;4.90;88.10;;;;;;4963091;28;20121;-67
2021/12/12 11:28:20;;;;;;;27.58;14.15;;;4.90;88.60;;;;;;4964863;28;20037;-67
2021/12/12 11:30:55;;;;;;;25.85;12.60;;;4.90;88.40;;;;;;4971968;28;20058;-68
2021/12/12 11:33:22;;;;;;;28.35;13.80;;;4.90;88.60;;;;;;4960467;28;20031;-67
2021/12/12 11:35:54;;;;;;;29.98;13.40;;;4.90;88.70;;;;;;4962561;28;20133;-68
2021/12/12 11:38:35;;;;;;;31.00;13.48;;;5.00;88.80;;;;;;4964902;28;20619;-69
2021/12/12 11:41:37;;;;;;;27.02;13.70;;;5.00;87.90;;;;;;4955120;28;20035;-67
2021/12/12 11:44:15;;;;;;;27.55;13.82;;;5.10;87.70;;;;;;4967504;28;20067;-66
2021/12/12 11:46:52;;;;;;;26.10;12.90;;;5.00;88.30;;;;;;4966980;28;20061;-68
2021/12/12 11:49:47;;;;;;;27.52;12.88;;;5.10;88.30;;;;;;4961927;28;20093;-68
2021/12/12 11:52:40;;;;;;;22.15;11.43;;;5.20;88.10;;;;;;4961714;28;20049;-68
2021/12/12 11:55:18;;;;;;;26.75;12.20;;;5.20;87.60;;;;;;4960549;28;20065;-68
2021/12/12 11:57:55;;;;;;;24.90;12.80;;;5.20;87.40;;;;;;4966271;28;20050;-69
2021/12/12 12:00:31;;;;;;;27.80;12.02;;;5.20;87.50;;;;;;4963836;28;20043;-69
2021/12/12 12:03:08;;;;;;;26.67;12.68;;;5.20;87.40;;;;;;4960493;28;20150;-69
2021/12/12 12:05:57;;;;;;;26.27;12.40;;;5.20;87.80;;;;;;4962433;28;20079;-69
2021/12/12 12:08:58;;;;;;;19.98;11.40;;;5.20;87.80;;;;;;4939548;28;20137;-68
2021/12/12 12:11:45;;;;;;;26.85;12.10;;;5.20;88.10;;;;;;4956613;28;20716;-68
2021/12/12 12:14:25;;;;;;;26.70;12.68;;;5.20;87.60;;;;;;4963488;28;20042;-68
2021/12/12 12:17:05;;;;;;;26.33;10.93;;;5.10;87.80;;;;;;4964568;28;20697;-68
2021/12/12 12:20:05;;;;;;;23.30;11.98;;;5.10;87.70;;;;;;4965446;28;20130;-70
2021/12/12 12:22:46;;;;;;;22.05;11.32;;;5.10;87.60;;;;;;4963652;28;20030;-69
2021/12/12 12:25:25;;;;;;;26.08;11.30;;;5.10;89.00;;;;;;4962473;28;20064;-68
2021/12/12 12:27:58;;;;;;;24.40;11.20;;;5.10;88.00;;;;;;4970933;28;20094;-68
2021/12/12 12:31:01;;;;;;;20.33;10.93;;;5.20;88.20;;;;;;4965296;28;20035;-70
2021/12/12 12:33:42;;;;;;;23.35;10.60;;;5.20;88.50;;;;;;4974274;28;20043;-70
2021/12/12 12:36:23;;;;;;;22.20;10.45;;;5.20;88.50;;;;;;4960874;28;20073;-69
2021/12/12 12:39:27;;;;;;;21.70;10.43;;;5.30;88.20;;;;;;4973484;28;20325;-69
2021/12/12 12:42:01;;;;;;;19.83;10.35;;;5.30;88.30;;;;;;4974101;28;20049;-69
2021/12/12 12:44:58;;;;;;;19.73;9.75;;;5.30;88.10;;;;;;4958437;28;20042;-68
2021/12/12 12:48:01;;;;;;;19.83;10.32;;;5.30;88.20;;;;;;4960070;28;20043;-67
2021/12/12 12:50:51;;;;;;;17.17;8.32;;;5.40;88.50;;;;;;4961450;28;20034;-68
2021/12/12 12:53:42;;;;;;;17.17;9.00;;;5.40;88.20;;;;;;4938017;28;20210;-71
2021/12/12 12:56:44;;;;;;;19.98;9.75;;;5.50;88.40;;;;;;4963307;28;20080;-70
2021/12/12 12:59:48;;;;;;;23.15;10.93;;;5.50;88.20;;;;;;4966145;28;20035;-70
2021/12/12 13:02:22;;;;;;;19.65;9.68;;;5.60;88.20;;;;;;4961208;28;20042;-70
2021/12/12 13:05:14;;;;;;;21.20;10.25;;;5.60;87.90;;;;;;4965235;28;20035;-69
2021/12/12 13:07:39;;;;;;;19.65;9.27;;;5.60;88.00;;;;;;4964199;28;20081;-69
2021/12/12 13:10:21;;;;;;;21.98;10.52;;;5.60;87.50;;;;;;4964733;28;20065;-68
2021/12/12 13:13:11;;;;;;;22.50;10.45;;;5.60;87.10;;;;;;4961522;28;20042;-70
2021/12/12 13:15:46;;;;;;;19.10;10.38;;;5.50;87.60;;;;;;4957855;28;20070;-69
2021/12/12 13:18:46;;;;;;;16.42;9.23;;;5.40;88.30;;;;;;4969482;28;20203;-70
2021/12/12 13:21:37;;;;;;;19.42;9.65;;;5.40;88.50;;;;;;4960138;28;20041;-71
2021/12/12 13:24:25;;;;;;;15.98;8.32;;;5.40;88.80;;;;;;4959696;28;20026;-69
2021/12/12 13:27:11;;;;;;;17.73;9.82;;;5.50;88.60;;;;;;4962132;28;20038;-69
2021/12/12 13:29:55;;;;;;;20.00;9.88;;;5.60;88.20;;;;;;4957698;28;20121;-69
2021/12/12 13:32:35;;;;;;;20.02;9.60;;;5.50;88.20;;;;;;4960016;28;20050;-70
2021/12/12 13:35:07;;;;;;;17.35;9.52;;;5.50;88.00;;;;;;4962294;28;20045;-69
2021/12/12 13:37:57;;;;;;;21.75;9.23;;;5.50;88.30;;;;;;4961251;28;20031;-70
2021/12/12 13:40:35;;;;;;;18.08;8.15;;;5.50;87.90;;;;;;4960479;28;20097;-69